Time,TemperatureF,DewpointF,PressureIn,WindDirection,WindDirectionDegrees,WindSpeedMPH,WindSpeedGustMPH,Humidity,HourlyPrecipIn,Conditions,Clouds,dailyrainin,SoftwareType,DateUTC
2013-07-10 00:01:00,75.9,71.1,30.11,West,270,0.0,0.0,85,0.00,,,0.00,WeatherCatV1.15B25,2013-07-10 04:01:00,
2013-07-10 00:06:00,75.9,71.1,30.11,West,270,0.0,0.0,85,0.00,,,0.00,WeatherCatV1.15B25,2013-07-10 04:06:00,
2013-07-10 00:11:00,75.9,71.1,30.10,West,270,0.0,0.0,85,0.00,,,0.00,WeatherCatV1.15B25,2013-07-10 04:11:00,
2013-07-10 00:16:00,75.7,70.9,30.11,West,270,0.0,0.0,85,0.00,,,0.00,WeatherCatV1.15B25,2013-07-10 04:16:00,
2013-07-10 00:21:00,75.7,70.9,30.11,West,270,0.0,0.0,85,0.00,,,0.00,WeatherCatV1.15B25,2013-07-10 04:21:00,
2013-07-10 00:26:00,75.7,71.3,30.11,West,270,0.0,0.0,86,0.00,,,0.00,WeatherCatV1.15B25,2013-07-10 04:26:00,
2013-07-10 00:31:00,75.7,71.3,30.11,West,270,0.0,0.0,86,0.00,,,0.00,WeatherCatV1.15B25,2013-07-10 04:31:00,
2013-07-10 00:36:00,75.7,71.3,30.11,West,270,0.0,0.0,86,0.00,,,0.00,WeatherCatV1.15B25,2013-07-10 04:36:00,
2013-07-10 00:41:00,75.6,71.1,30.11,West,270,0.0,0.0,86,0.00,,,0.00,WeatherCatV1.15B25,2013-07-10 04:41:00,
2013-07-10 00:46:00,75.6,71.1,30.11,West,270,0.0,0.0,86,0.00,,,0.00,WeatherCatV1.15B25,2013-07-10 04:46:00,
2013-07-10 00:51:00,75.6,71.1,30.11,West,270,0.0,0.0,86,0.00,,,0.00,WeatherCatV1.15B25,2013-07-10 04:51:00,
2013-07-10 00:56:00,75.6,71.1,30.11,West,270,0.0,0.0,86,0.00,,,0.00,WeatherCatV1.15B25,2013-07-10 04:56:00,
2013-07-10 01:01:00,75.6,71.1,30.10,West,270,0.0,0.0,86,0.00,,,0.00,WeatherCatV1.15B25,2013-07-10 05:01:00,
2013-07-10 01:06:00,75.6,71.1,30.11,West,270,0.0,0.0,86,0.00,,,0.00,WeatherCatV1.15B25,2013-07-10 05:06:00,
2013-07-10 01:11:00,75.6,71.1,30.10,West,270,0.0,0.0,86,0.00,,,0.00,WeatherCatV1.15B25,2013-07-10 05:11:00,
2013-07-10 01:16:00,75.4,70.9,30.11,West,270,0.0,0.0,86,0.00,,,0.00,WeatherCatV1.15B25,2013-07-10 05:16:00,
2013-07-10 01:21:00,75.4,70.9,30.10,West,270,0.0,0.0,86,0.00,,,0.00,WeatherCatV1.15B25,2013-07-10 05:21:00,
2013-07-10 01:26:00,75.4,70.9,30.10,West,270,0.0,0.0,86,0.00,,,0.00,WeatherCatV1.15B25,2013-07-10 05:26:00,
2013-07-10 01:31:00,75.4,71.3,30.10,West,270,0.0,0.0,87,0.00,,,0.00,WeatherCatV1.15B25,2013-07-10 05:31:00,
2013-07-10 01:36:00,75.2,71.1,30.09,West,270,0.0,0.0,87,0.00,,,0.00,WeatherCatV1.15B25,2013-07-10 05:36:00,
2013-07-10 01:41:00,75.0,70.9,30.09,West,270,0.0,0.0,87,0.00,,,0.00,WeatherCatV1.15B25,2013-07-10 05:41:00,
2013-07-10 01:46:00,75.0,70.9,30.09,West,270,0.0,0.0,87,0.00,,,0.00,WeatherCatV1.15B25,2013-07-10 05:46:00,
2013-07-10 01:51:00,75.0,70.9,30.10,West,270,0.0,0.0,87,0.00,,,0.00,WeatherCatV1.15B25,2013-07-10 05:51:00,
2013-07-10 01:56:00,75.0,70.9,30.09,West,270,0.0,0.0,87,0.00,,,0.00,WeatherCatV1.15B25,2013-07-10 05:56:00,
2013-07-10 02:10:00,75.0,70.9,30.09,West,270,0.0,0.0,87,-99.99,,,0.00,WeatherCatV1.15B25,2013-07-10 06:10:00,
2013-07-10 02:15:00,74.8,70.8,30.09,West,270,0.0,0.0,87,0.00,,,0.00,WeatherCatV1.15B25,2013-07-10 06:15:00,
2013-07-10 02:20:00,74.8,70.8,30.09,West,270,0.0,0.0,87,0.00,,,0.00,WeatherCatV1.15B25,2013-07-10 06:20:00,
2013-07-10 02:25:00,74.7,70.6,30.09,West,270,0.0,0.0,87,0.00,,,0.00,WeatherCatV1.15B25,2013-07-10 06:25:00,
2013-07-10 02:30:00,74.7,70.6,30.09,West,270,0.0,0.0,87,0.00,,,0.00,WeatherCatV1.15B25,2013-07-10 06:30:00,
2013-07-10 02:35:00,74.5,70.4,30.09,West,270,0.0,0.0,87,0.00,,,0.00,WeatherCatV1.15B25,2013-07-10 06:35:00,
2013-07-10 02:40:00,74.5,70.4,30.09,West,270,0.0,0.0,87,0.00,,,0.00,WeatherCatV1.15B25,2013-07-10 06:40:00,
2013-07-10 02:45:00,74.5,70.4,30.08,West,270,0.0,0.0,87,0.00,,,0.00,WeatherCatV1.15B25,2013-07-10 06:45:00,
2013-07-10 02:50:00,74.3,70.2,30.08,West,270,0.0,0.0,87,0.00,,,0.00,WeatherCatV1.15B25,2013-07-10 06:50:00,
2013-07-10 02:55:00,74.3,70.2,30.08,West,270,0.0,0.0,87,0.00,,,0.00,WeatherCatV1.15B25,2013-07-10 06:55:00,
2013-07-10 03:00:00,74.3,70.2,30.08,West,270,0.0,0.0,87,0.00,,,0.00,WeatherCatV1.15B25,2013-07-10 07:00:00,
2013-07-10 03:05:00,74.1,70.0,30.08,West,270,0.0,0.0,87,0.00,,,0.00,WeatherCatV1.15B25,2013-07-10 07:05:00,
2013-07-10 03:10:00,74.1,70.0,30.08,West,270,0.0,0.0,87,0.00,,,0.00,WeatherCatV1.15B25,2013-07-10 07:10:00,
2013-07-10 03:15:00,73.9,69.9,30.08,West,270,0.0,0.0,87,0.00,,,0.00,WeatherCatV1.15B25,2013-07-10 07:15:00,
2013-07-10 03:20:00,73.9,69.9,30.08,West,270,0.0,0.0,87,0.00,,,0.00,WeatherCatV1.15B25,2013-07-10 07:20:00,
2013-07-10 03:25:00,73.9,69.9,30.08,West,270,0.0,0.0,87,0.00,,,0.00,WeatherCatV1.15B25,2013-07-10 07:25:00,
2013-07-10 03:30:00,73.9,70.2,30.08,West,270,0.0,0.0,88,0.00,,,0.00,WeatherCatV1.15B25,2013-07-10 07:30:00,
2013-07-10 03:35:00,73.9,70.2,30.08,West,270,0.0,0.0,88,0.00,,,0.00,WeatherCatV1.15B25,2013-07-10 07:35:00,
2013-07-10 03:40:00,73.9,70.2,30.08,West,270,0.0,0.0,88,0.00,,,0.00,WeatherCatV1.15B25,2013-07-10 07:40:00,
2013-07-10 03:45:00,73.8,70.0,30.09,West,270,0.0,0.0,88,0.00,,,0.00,WeatherCatV1.15B25,2013-07-10 07:45:00,
2013-07-10 03:50:00,73.8,70.0,30.08,West,270,0.0,0.0,88,0.00,,,0.00,WeatherCatV1.15B25,2013-07-10 07:50:00,
2013-07-10 03:55:00,73.8,70.0,30.08,West,270,0.0,0.0,88,0.00,,,0.00,WeatherCatV1.15B25,2013-07-10 07:55:00,
2013-07-10 04:00:00,73.8,70.0,30.08,West,270,0.0,0.0,88,0.00,,,0.00,WeatherCatV1.15B25,2013-07-10 08:00:00,
2013-07-10 04:01:00,73.8,70.0,30.08,West,270,0.0,0.0,88,0.00,,,0.00,WeatherCatV1.15B25,2013-07-10 08:01:00,
2013-07-10 04:06:00,73.6,69.8,30.08,West,270,0.0,0.0,88,0.00,,,0.00,WeatherCatV1.15B25,2013-07-10 08:06:00,
2013-07-10 04:11:00,73.6,69.8,30.08,West,270,0.0,0.0,88,0.00,,,0.00,WeatherCatV1.15B25,2013-07-10 08:11:00,
2013-07-10 04:16:00,73.6,69.8,30.08,West,270,0.0,0.0,88,0.00,,,0.00,WeatherCatV1.15B25,2013-07-10 08:16:00,
2013-07-10 04:21:00,73.4,69.7,30.09,West,270,0.0,0.0,88,0.00,,,0.00,WeatherCatV1.15B25,2013-07-10 08:21:00,
2013-07-10 04:26:00,73.4,69.7,30.09,West,270,0.0,0.0,88,0.00,,,0.00,WeatherCatV1.15B25,2013-07-10 08:26:00,
2013-07-10 04:31:00,73.4,69.7,30.09,West,270,0.0,0.0,88,0.00,,,0.00,WeatherCatV1.15B25,2013-07-10 08:31:00,
2013-07-10 04:36:00,73.2,69.5,30.09,West,270,0.0,0.0,88,0.00,,,0.00,WeatherCatV1.15B25,2013-07-10 08:36:00,
2013-07-10 04:41:00,73.2,69.5,30.09,West,270,0.0,0.0,88,0.00,,,0.00,WeatherCatV1.15B25,2013-07-10 08:41:00,
2013-07-10 04:46:00,73.2,69.5,30.08,West,270,0.0,0.0,88,0.00,,,0.00,WeatherCatV1.15B25,2013-07-10 08:46:00,
2013-07-10 04:51:00,73.2,69.5,30.08,West,270,0.0,0.0,88,0.00,,,0.00,WeatherCatV1.15B25,2013-07-10 08:51:00,
2013-07-10 04:56:00,73.2,69.5,30.09,West,270,0.0,0.0,88,0.00,,,0.00,WeatherCatV1.15B25,2013-07-10 08:56:00,
2013-07-10 05:01:00,73.2,69.5,30.09,West,270,0.0,0.0,88,0.00,,,0.00,WeatherCatV1.15B25,2013-07-10 09:01:00,
2013-07-10 05:06:00,73.0,69.3,30.08,West,270,0.0,0.0,88,0.00,,,0.00,WeatherCatV1.15B25,2013-07-10 09:06:00,
2013-07-10 05:11:00,73.0,69.3,30.08,West,270,0.0,0.0,88,0.00,,,0.00,WeatherCatV1.15B25,2013-07-10 09:11:00,
2013-07-10 05:16:00,73.0,69.3,30.08,West,270,0.0,0.0,88,0.00,,,0.00,WeatherCatV1.15B25,2013-07-10 09:16:00,
2013-07-10 05:21:00,73.0,69.3,30.08,West,270,0.0,0.0,88,0.00,,,0.00,WeatherCatV1.15B25,2013-07-10 09:21:00,
2013-07-10 05:26:00,72.9,69.1,30.08,West,270,0.0,0.0,88,0.00,,,0.00,WeatherCatV1.15B25,2013-07-10 09:26:00,
2013-07-10 05:31:00,72.7,68.9,30.08,West,270,0.0,0.0,88,0.00,,,0.00,WeatherCatV1.15B25,2013-07-10 09:31:00,
2013-07-10 05:36:00,72.9,69.1,30.08,West,270,0.0,0.0,88,0.00,,,0.00,WeatherCatV1.15B25,2013-07-10 09:36:00,
2013-07-10 05:41:00,72.7,68.9,30.07,West,270,0.0,0.0,88,0.00,,,0.00,WeatherCatV1.15B25,2013-07-10 09:41:00,
2013-07-10 05:46:00,72.7,68.9,30.07,West,270,0.0,0.0,88,0.00,,,0.00,WeatherCatV1.15B25,2013-07-10 09:46:00,
2013-07-10 05:51:00,72.7,68.9,30.08,West,270,0.0,0.0,88,0.00,,,0.00,WeatherCatV1.15B25,2013-07-10 09:51:00,
2013-07-10 05:56:00,72.7,68.9,30.07,West,270,0.0,0.0,88,0.00,,,0.00,WeatherCatV1.15B25,2013-07-10 09:56:00,
2013-07-10 06:01:00,72.5,68.8,30.07,West,270,0.0,0.0,88,0.00,,,0.00,WeatherCatV1.15B25,2013-07-10 10:01:00,
2013-07-10 06:06:00,72.5,68.8,30.07,West,270,0.0,0.0,88,0.00,,,0.00,WeatherCatV1.15B25,2013-07-10 10:06:00,
2013-07-10 06:11:00,72.5,68.8,30.07,West,270,0.0,0.0,88,0.00,,,0.00,WeatherCatV1.15B25,2013-07-10 10:11:00,
2013-07-10 06:16:00,72.5,68.8,30.08,West,270,0.0,0.0,88,0.00,,,0.00,WeatherCatV1.15B25,2013-07-10 10:16:00,
2013-07-10 06:21:00,72.3,68.6,30.07,West,270,0.0,0.0,88,0.00,,,0.00,WeatherCatV1.15B25,2013-07-10 10:21:00,
2013-07-10 06:26:00,72.3,68.6,30.07,West,270,0.0,0.0,88,0.00,,,0.00,WeatherCatV1.15B25,2013-07-10 10:26:00,
2013-07-10 06:31:00,72.3,68.6,30.07,West,270,0.0,0.0,88,0.00,,,0.00,WeatherCatV1.15B25,2013-07-10 10:31:00,
2013-07-10 06:36:00,72.3,68.6,30.07,West,270,0.0,0.0,88,0.00,,,0.00,WeatherCatV1.15B25,2013-07-10 10:36:00,
2013-07-10 06:41:00,72.3,68.6,30.08,West,270,0.0,0.0,88,0.00,,,0.00,WeatherCatV1.15B25,2013-07-10 10:41:00,
2013-07-10 06:46:00,72.3,68.9,30.08,West,270,0.0,0.0,89,0.00,,,0.00,WeatherCatV1.15B25,2013-07-10 10:46:00,
2013-07-10 06:51:00,72.3,68.9,30.08,West,270,0.0,0.0,89,0.00,,,0.00,WeatherCatV1.15B25,2013-07-10 10:51:00,
2013-07-10 06:56:00,72.3,68.9,30.08,West,270,0.0,0.0,89,0.00,,,0.00,WeatherCatV1.15B25,2013-07-10 10:56:00,
2013-07-10 07:01:00,72.3,68.9,30.08,West,270,0.0,0.0,89,0.00,,,0.00,WeatherCatV1.15B25,2013-07-10 11:01:00,
2013-07-10 07:06:00,72.3,68.9,30.08,West,270,0.0,0.0,89,0.00,,,0.00,WeatherCatV1.15B25,2013-07-10 11:06:00,
2013-07-10 07:11:00,72.5,69.1,30.08,West,270,0.0,0.0,89,0.00,,,0.00,WeatherCatV1.15B25,2013-07-10 11:11:00,
2013-07-10 07:16:00,72.5,69.1,30.08,West,270,0.0,0.0,89,0.00,,,0.00,WeatherCatV1.15B25,2013-07-10 11:16:00,
2013-07-10 07:21:00,72.7,69.3,30.08,West,270,0.0,0.0,89,0.00,,,0.00,WeatherCatV1.15B25,2013-07-10 11:21:00,
2013-07-10 07:26:00,72.7,69.3,30.08,West,270,0.0,0.0,89,0.00,,,0.00,WeatherCatV1.15B25,2013-07-10 11:26:00,
2013-07-10 07:31:00,72.9,69.5,30.08,West,270,0.0,0.0,89,0.00,,,0.00,WeatherCatV1.15B25,2013-07-10 11:31:00,
2013-07-10 07:36:00,73.0,69.6,30.08,West,270,0.0,0.0,89,0.00,,,0.00,WeatherCatV1.15B25,2013-07-10 11:36:00,
2013-07-10 07:41:00,73.0,69.6,30.08,West,270,0.0,0.0,89,0.00,,,0.00,WeatherCatV1.15B25,2013-07-10 11:41:00,
2013-07-10 07:46:00,73.2,69.8,30.09,West,270,0.0,0.0,89,0.00,,,0.00,WeatherCatV1.15B25,2013-07-10 11:46:00,
2013-07-10 07:51:00,73.4,70.0,30.09,West,270,0.0,0.0,89,0.00,,,0.00,WeatherCatV1.15B25,2013-07-10 11:51:00,
2013-07-10 07:56:00,73.6,70.2,30.09,West,270,0.0,0.0,89,0.00,,,0.00,WeatherCatV1.15B25,2013-07-10 11:56:00,
2013-07-10 08:01:00,73.8,70.4,30.09,West,270,0.0,0.0,89,0.00,,,0.00,WeatherCatV1.15B25,2013-07-10 12:01:00,
2013-07-10 08:06:00,73.9,70.5,30.09,West,270,0.0,0.0,89,0.00,,,0.00,WeatherCatV1.15B25,2013-07-10 12:06:00,
2013-07-10 08:11:00,74.3,70.9,30.09,West,270,0.0,0.0,89,0.00,,,0.00,WeatherCatV1.15B25,2013-07-10 12:11:00,
2013-07-10 08:16:00,74.7,71.3,30.09,West,270,0.0,0.0,89,0.00,,,0.00,WeatherCatV1.15B25,2013-07-10 12:16:00,
2013-07-10 08:21:00,74.8,71.4,30.09,West,270,0.0,0.0,89,0.00,,,0.00,WeatherCatV1.15B25,2013-07-10 12:21:00,
2013-07-10 08:26:00,75.0,71.6,30.09,West,270,0.0,0.0,89,0.00,,,0.00,WeatherCatV1.15B25,2013-07-10 12:26:00,
2013-07-10 08:31:00,75.6,72.5,30.09,West,270,0.0,0.0,90,0.00,,,0.00,WeatherCatV1.15B25,2013-07-10 12:31:00,
2013-07-10 08:36:00,75.9,72.9,30.10,West,270,0.0,0.0,90,0.00,,,0.00,WeatherCatV1.15B25,2013-07-10 12:36:00,
2013-07-10 08:41:00,76.1,73.0,30.10,SSE,157,0.0,0.0,90,0.00,,,0.00,WeatherCatV1.15B25,2013-07-10 12:41:00,
2013-07-10 08:46:00,76.8,73.8,30.10,SSE,157,0.0,0.0,90,0.00,,,0.00,WeatherCatV1.15B25,2013-07-10 12:46:00,
2013-07-10 08:51:00,76.8,73.8,30.10,WSW,247,0.0,0.0,90,0.00,,,0.00,WeatherCatV1.15B25,2013-07-10 12:51:00,
2013-07-10 08:56:00,77.2,74.1,30.10,SE,135,0.0,0.0,90,0.00,,,0.00,WeatherCatV1.15B25,2013-07-10 12:56:00,
2013-07-10 09:01:00,77.5,74.1,30.10,South,180,0.0,0.0,89,0.00,,,0.00,WeatherCatV1.15B25,2013-07-10 13:01:00,
2013-07-10 09:06:00,77.7,74.3,30.10,SSW,202,0.0,0.0,89,0.00,,,0.00,WeatherCatV1.15B25,2013-07-10 13:06:00,
2013-07-10 09:11:00,77.9,74.5,30.11,SSE,157,0.0,0.0,89,0.00,,,0.00,WeatherCatV1.15B25,2013-07-10 13:11:00,
2013-07-10 09:16:00,78.1,74.7,30.10,South,180,0.0,0.0,89,0.00,,,0.00,WeatherCatV1.15B25,2013-07-10 13:16:00,
2013-07-10 09:21:00,78.3,74.5,30.10,SSE,157,0.0,0.0,88,0.00,,,0.00,WeatherCatV1.15B25,2013-07-10 13:21:00,
2013-07-10 09:26:00,78.4,74.7,30.11,SSW,202,0.0,0.0,88,0.00,,,0.00,WeatherCatV1.15B25,2013-07-10 13:26:00,
2013-07-10 09:31:00,78.8,75.0,30.10,SSW,202,0.0,0.0,88,0.00,,,0.00,WeatherCatV1.15B25,2013-07-10 13:31:00,
2013-07-10 09:36:00,79.2,75.3,30.10,SSW,202,0.0,0.0,88,0.00,,,0.00,WeatherCatV1.15B25,2013-07-10 13:36:00,
2013-07-10 09:41:00,79.3,75.1,30.11,SSE,157,0.0,0.0,87,0.00,,,0.00,WeatherCatV1.15B25,2013-07-10 13:41:00,
2013-07-10 09:46:00,79.7,75.1,30.10,SSE,157,0.0,0.0,86,0.00,,,0.00,WeatherCatV1.15B25,2013-07-10 13:46:00,
2013-07-10 09:51:00,79.9,75.3,30.10,ESE,112,0.0,0.0,86,0.00,,,0.00,WeatherCatV1.15B25,2013-07-10 13:51:00,
2013-07-10 09:56:00,80.2,75.3,30.10,SE,135,0.0,0.0,85,0.00,,,0.00,WeatherCatV1.15B25,2013-07-10 13:56:00,
2013-07-10 10:01:00,80.4,75.5,30.10,SW,225,0.0,0.0,85,0.00,,,0.00,WeatherCatV1.15B25,2013-07-10 14:01:00,
2013-07-10 10:06:00,80.6,75.7,30.10,South,180,0.0,0.0,85,0.00,,,0.00,WeatherCatV1.15B25,2013-07-10 14:06:00,
2013-07-10 10:11:00,80.8,75.5,30.10,SSE,157,0.0,0.0,84,0.00,,,0.00,WeatherCatV1.15B25,2013-07-10 14:11:00,
2013-07-10 10:16:00,81.0,75.7,30.10,SE,135,0.0,0.0,84,0.00,,,0.00,WeatherCatV1.15B25,2013-07-10 14:16:00,
2013-07-10 10:21:00,81.1,75.5,30.10,South,180,0.0,0.0,83,0.00,,,0.00,WeatherCatV1.15B25,2013-07-10 14:21:00,
2013-07-10 10:26:00,81.1,75.5,30.10,SE,135,0.0,0.0,83,0.00,,,0.00,WeatherCatV1.15B25,2013-07-10 14:26:00,
2013-07-10 10:31:00,81.3,75.7,30.10,SSE,157,0.0,0.0,83,0.00,,,0.00,WeatherCatV1.15B25,2013-07-10 14:31:00,
2013-07-10 10:36:00,81.3,75.7,30.10,SSE,157,0.0,0.0,83,0.00,,,0.00,WeatherCatV1.15B25,2013-07-10 14:36:00,
2013-07-10 10:41:00,81.5,75.5,30.10,SSE,157,0.0,0.0,82,0.00,,,0.00,WeatherCatV1.15B25,2013-07-10 14:41:00,
2013-07-10 10:46:00,81.7,75.4,30.10,SSE,157,0.0,0.0,81,0.00,,,0.00,WeatherCatV1.15B25,2013-07-10 14:46:00,
2013-07-10 10:51:00,81.7,75.4,30.10,SSE,157,0.0,0.0,81,0.00,,,0.00,WeatherCatV1.15B25,2013-07-10 14:51:00,
2013-07-10 10:56:00,82.0,75.5,30.11,NE,45,0.0,0.0,81,0.00,,,0.00,WeatherCatV1.15B25,2013-07-10 14:56:00,
2013-07-10 11:01:00,82.0,75.7,30.10,SE,135,0.0,0.0,81,0.00,,,0.00,WeatherCatV1.15B25,2013-07-10 15:01:00,
2013-07-10 11:06:00,82.2,75.9,30.10,SE,135,0.0,0.0,81,0.00,,,0.00,WeatherCatV1.15B25,2013-07-10 15:06:00,
2013-07-10 11:11:00,82.4,76.1,30.11,SE,135,0.0,0.0,81,0.00,,,0.00,WeatherCatV1.15B25,2013-07-10 15:11:00,
2013-07-10 11:16:00,82.6,76.2,30.10,SSE,157,0.0,0.0,81,0.00,,,0.00,WeatherCatV1.15B25,2013-07-10 15:16:00,
2013-07-10 11:21:00,82.6,75.9,30.11,SSE,157,0.0,0.0,80,0.00,,,0.00,WeatherCatV1.15B25,2013-07-10 15:21:00,
2013-07-10 11:26:00,82.6,75.9,30.10,SE,135,0.0,0.0,80,0.00,,,0.00,WeatherCatV1.15B25,2013-07-10 15:26:00,
2013-07-10 11:31:00,82.9,76.2,30.10,SW,225,0.9,0.9,80,0.00,,,0.00,WeatherCatV1.15B25,2013-07-10 15:31:00,
2013-07-10 11:36:00,82.9,75.8,30.10,NW,315,3.1,3.1,79,0.00,,,0.00,WeatherCatV1.15B25,2013-07-10 15:36:00,
2013-07-10 11:41:00,83.1,76.0,30.11,South,180,0.0,0.0,79,0.00,,,0.00,WeatherCatV1.15B25,2013-07-10 15:41:00,
2013-07-10 11:46:00,83.5,76.3,30.10,South,180,0.0,0.0,79,0.00,,,0.00,WeatherCatV1.15B25,2013-07-10 15:46:00,
2013-07-10 11:51:00,83.8,76.6,30.10,South,180,0.0,0.0,79,0.00,,,0.00,WeatherCatV1.15B25,2013-07-10 15:51:00,
2013-07-10 11:56:00,84.0,76.8,30.10,SE,135,0.0,0.0,78,0.00,,,0.00,WeatherCatV1.15B25,2013-07-10 15:56:00,
2013-07-10 12:01:00,84.7,77.1,30.10,SSE,157,0.9,0.9,78,0.00,,,0.00,WeatherCatV1.15B25,2013-07-10 16:01:00,
2013-07-10 12:06:00,84.9,76.9,30.10,SSE,157,0.0,0.0,77,0.00,,,0.00,WeatherCatV1.15B25,2013-07-10 16:06:00,
2013-07-10 12:11:00,85.6,77.3,30.10,SSE,157,0.0,0.0,77,0.00,,,0.00,WeatherCatV1.15B25,2013-07-10 16:11:00,
2013-07-10 12:16:00,85.8,77.8,30.10,SSW,202,0.9,0.9,77,0.00,,,0.00,WeatherCatV1.15B25,2013-07-10 16:16:00,
2013-07-10 12:21:00,86.4,78.3,30.10,South,180,0.0,0.0,77,0.00,,,0.00,WeatherCatV1.15B25,2013-07-10 16:21:00,
2013-07-10 12:26:00,86.5,78.3,30.09,SE,135,0.0,0.0,76,0.00,,,0.00,WeatherCatV1.15B25,2013-07-10 16:26:00,
2013-07-10 12:31:00,87.1,78.2,30.10,South,180,0.0,0.0,75,0.00,,,0.00,WeatherCatV1.15B25,2013-07-10 16:31:00,
2013-07-10 12:36:00,87.4,78.5,30.09,SSE,157,1.1,1.1,75,0.00,,,0.00,WeatherCatV1.15B25,2013-07-10 16:36:00,
2013-07-10 12:41:00,87.6,78.3,30.09,South,180,0.0,0.0,73,0.00,,,0.00,WeatherCatV1.15B25,2013-07-10 16:41:00,
2013-07-10 12:46:00,87.8,78.1,30.09,SSE,157,1.3,1.3,73,0.00,,,0.00,WeatherCatV1.15B25,2013-07-10 16:46:00,
2013-07-10 12:51:00,88.0,77.8,30.09,South,180,1.6,1.6,72,0.00,,,0.00,WeatherCatV1.15B25,2013-07-10 16:51:00,
2013-07-10 12:56:00,88.3,78.2,30.08,SW,225,0.0,0.0,72,0.00,,,0.00,WeatherCatV1.15B25,2013-07-10 16:56:00,
2013-07-10 13:01:00,88.5,77.9,30.08,South,180,0.0,0.0,71,0.00,,,0.00,WeatherCatV1.15B25,2013-07-10 17:01:00,
2013-07-10 13:06:00,88.9,78.7,30.09,SE,135,0.0,0.0,72,0.00,,,0.00,WeatherCatV1.15B25,2013-07-10 17:06:00,
2013-07-10 13:11:00,89.6,78.4,30.08,South,180,0.0,0.0,70,0.00,,,0.00,WeatherCatV1.15B25,2013-07-10 17:11:00,
2013-07-10 13:16:00,89.8,78.3,30.08,South,180,0.0,1.3,69,0.00,,,0.00,WeatherCatV1.15B25,2013-07-10 17:16:00,
2013-07-10 13:21:00,89.8,77.8,30.08,South,180,0.0,0.0,68,0.00,,,0.00,WeatherCatV1.15B25,2013-07-10 17:21:00,
2013-07-10 13:26:00,90.3,78.0,30.08,SSE,157,0.9,0.9,68,0.00,,,0.00,WeatherCatV1.15B25,2013-07-10 17:26:00,
2013-07-10 13:31:00,90.7,78.7,30.08,SSE,157,0.0,0.0,68,0.00,,,0.00,WeatherCatV1.15B25,2013-07-10 17:31:00,
2013-07-10 13:36:00,91.0,78.5,30.08,SE,135,2.0,2.0,67,0.00,,,0.00,WeatherCatV1.15B25,2013-07-10 17:36:00,
2013-07-10 13:41:00,91.2,78.7,30.08,SE,135,0.0,0.0,67,0.00,,,0.00,WeatherCatV1.15B25,2013-07-10 17:41:00,
2013-07-10 13:47:00,91.8,79.2,30.07,SSE,157,0.0,0.0,67,0.00,,,0.00,WeatherCatV1.15B25,2013-07-10 17:47:00,
2013-07-10 13:52:00,92.1,79.1,30.07,SE,135,0.0,0.0,66,0.00,,,0.00,WeatherCatV1.15B25,2013-07-10 17:52:00,
2013-07-10 13:57:00,92.3,78.8,30.06,SE,135,0.0,0.0,65,0.00,,,0.00,WeatherCatV1.15B25,2013-07-10 17:57:00,
2013-07-10 14:02:00,92.3,78.8,30.06,ENE,67,0.0,0.0,65,0.00,,,0.00,WeatherCatV1.15B25,2013-07-10 18:02:00,
2013-07-10 14:07:00,92.5,78.5,30.06,SE,135,0.0,0.0,64,0.00,,,0.00,WeatherCatV1.15B25,2013-07-10 18:07:00,
2013-07-10 14:12:00,92.1,77.7,30.06,South,180,0.9,0.9,63,0.00,,,0.00,WeatherCatV1.15B25,2013-07-10 18:12:00,
2013-07-10 14:17:00,91.9,78.0,30.06,WSW,247,0.0,0.0,64,0.00,,,0.00,WeatherCatV1.15B25,2013-07-10 18:17:00,
2013-07-10 14:22:00,91.9,77.5,30.06,SE,135,0.0,0.0,63,0.00,,,0.00,WeatherCatV1.15B25,2013-07-10 18:22:00,
2013-07-10 14:27:00,91.9,77.0,30.06,SSE,157,0.0,1.1,62,0.00,,,0.00,WeatherCatV1.15B25,2013-07-10 18:27:00,
2013-07-10 14:32:00,91.9,77.5,30.06,East,90,1.3,1.3,63,0.00,,,0.00,WeatherCatV1.15B25,2013-07-10 18:32:00,
2013-07-10 14:37:00,92.1,77.7,30.05,South,180,0.0,0.0,63,0.00,,,0.00,WeatherCatV1.15B25,2013-07-10 18:37:00,
2013-07-10 14:42:00,92.5,78.0,30.05,South,180,0.0,0.0,63,0.00,,,0.00,WeatherCatV1.15B25,2013-07-10 18:42:00,
2013-07-10 14:47:00,92.5,78.0,30.05,SE,135,1.3,1.3,63,0.00,,,0.00,WeatherCatV1.15B25,2013-07-10 18:47:00,
2013-07-10 14:52:00,92.8,77.9,30.05,SSW,202,0.0,0.0,62,0.00,,,0.00,WeatherCatV1.15B25,2013-07-10 18:52:00,
2013-07-10 14:57:00,93.0,78.1,30.04,SSE,157,0.0,0.0,62,0.00,,,0.00,WeatherCatV1.15B25,2013-07-10 18:57:00,
2013-07-10 15:02:00,93.4,78.0,30.04,SSE,157,0.0,0.9,61,0.00,,,0.00,WeatherCatV1.15B25,2013-07-10 19:02:00,
2013-07-10 15:07:00,93.0,77.6,30.04,South,180,1.3,1.3,61,0.00,,,0.00,WeatherCatV1.15B25,2013-07-10 19:07:00,
2013-07-10 15:12:00,92.8,77.9,30.04,SSE,157,0.0,0.0,62,0.00,,,0.00,WeatherCatV1.15B25,2013-07-10 19:12:00,
2013-07-10 15:17:00,92.8,78.4,30.04,South,180,0.0,1.1,63,0.00,,,0.00,WeatherCatV1.15B25,2013-07-10 19:17:00,
2013-07-10 15:22:00,92.7,78.2,30.04,SE,135,0.0,0.0,63,0.00,,,0.00,WeatherCatV1.15B25,2013-07-10 19:22:00,
2013-07-10 15:27:00,91.2,76.8,30.04,SE,135,0.0,1.6,63,0.00,,,0.00,WeatherCatV1.15B25,2013-07-10 19:27:00,
2013-07-10 15:32:00,90.9,76.9,30.04,SE,135,0.0,0.0,64,0.00,,,0.00,WeatherCatV1.15B25,2013-07-10 19:32:00,
2013-07-10 15:37:00,90.5,77.1,30.03,SSE,157,0.9,0.9,65,0.00,,,0.00,WeatherCatV1.15B25,2013-07-10 19:37:00,
2013-07-10 15:42:00,89.4,76.1,30.03,SE,135,1.6,1.6,65,0.00,,,0.00,WeatherCatV1.15B25,2013-07-10 19:42:00,
2013-07-10 15:47:00,88.9,75.6,30.03,SSE,157,0.7,0.7,65,0.00,,,0.00,WeatherCatV1.15B25,2013-07-10 19:47:00,
2013-07-10 15:52:00,88.2,75.4,30.03,ESE,112,1.8,1.8,66,0.00,,,0.00,WeatherCatV1.15B25,2013-07-10 19:52:00,
2013-07-10 15:57:00,87.6,75.7,30.03,SE,135,0.9,0.9,68,0.00,,,0.00,WeatherCatV1.15B25,2013-07-10 19:57:00,
2013-07-10 16:02:00,87.8,75.9,30.03,ESE,112,0.0,0.0,68,0.00,,,0.00,WeatherCatV1.15B25,2013-07-10 20:02:00,
2013-07-10 16:07:00,87.6,75.7,30.03,SSW,202,0.0,0.0,68,0.00,,,0.00,WeatherCatV1.15B25,2013-07-10 20:07:00,
2013-07-10 16:12:00,87.3,75.4,30.03,SSE,157,1.1,1.1,68,0.00,,,0.00,WeatherCatV1.15B25,2013-07-10 20:12:00,
2013-07-10 16:17:00,87.1,75.7,30.03,South,180,0.9,0.9,69,0.00,,,0.00,WeatherCatV1.15B25,2013-07-10 20:17:00,
2013-07-10 16:22:00,86.9,75.5,30.02,SSE,157,0.0,0.0,69,0.00,,,0.00,WeatherCatV1.15B25,2013-07-10 20:22:00,
2013-07-10 16:27:00,86.7,75.8,30.02,SSE,157,0.0,0.0,70,0.00,,,0.00,WeatherCatV1.15B25,2013-07-10 20:27:00,
2013-07-10 16:32:00,86.7,75.8,30.02,SSE,157,0.0,0.0,70,0.00,,,0.00,WeatherCatV1.15B25,2013-07-10 20:32:00,
2013-07-10 16:37:00,86.4,75.5,30.02,SSE,157,0.0,0.0,70,0.00,,,0.00,WeatherCatV1.15B25,2013-07-10 20:37:00,
2013-07-10 16:42:00,86.5,75.7,30.02,SE,135,0.0,2.2,70,0.00,,,0.00,WeatherCatV1.15B25,2013-07-10 20:42:00,
2013-07-10 16:47:00,86.5,75.7,30.02,SSE,157,1.6,1.6,70,0.00,,,0.00,WeatherCatV1.15B25,2013-07-10 20:47:00,
2013-07-10 16:52:00,86.4,75.5,30.01,SSE,157,0.0,0.0,70,0.00,,,0.00,WeatherCatV1.15B25,2013-07-10 20:52:00,
2013-07-10 16:57:00,86.4,75.5,30.01,NNW,337,1.1,2.2,70,0.00,,,0.00,WeatherCatV1.15B25,2013-07-10 20:57:00,
2013-07-10 17:02:00,86.2,75.4,30.01,SE,135,0.0,0.0,70,0.00,,,0.00,WeatherCatV1.15B25,2013-07-10 21:02:00,
2013-07-10 17:07:00,85.8,75.0,30.01,SE,135,0.0,0.0,70,0.00,,,0.00,WeatherCatV1.15B25,2013-07-10 21:07:00,
2013-07-10 17:12:00,85.8,75.4,30.01,SE,135,0.0,0.0,71,0.00,,,0.00,WeatherCatV1.15B25,2013-07-10 21:12:00,
2013-07-10 17:17:00,85.6,75.2,30.01,SSE,157,0.0,0.0,71,0.00,,,0.00,WeatherCatV1.15B25,2013-07-10 21:17:00,
2013-07-10 17:22:00,85.6,75.2,30.01,SSW,202,0.0,0.0,71,0.00,,,0.00,WeatherCatV1.15B25,2013-07-10 21:22:00,
2013-07-10 17:27:00,85.1,75.1,30.01,SE,135,0.0,0.0,72,0.00,,,0.00,WeatherCatV1.15B25,2013-07-10 21:27:00,
2013-07-10 17:32:00,84.9,74.9,30.01,ENE,67,0.7,0.7,72,0.00,,,0.00,WeatherCatV1.15B25,2013-07-10 21:32:00,
2013-07-10 17:37:00,84.7,74.7,30.01,SSE,157,0.0,0.0,72,0.00,,,0.00,WeatherCatV1.15B25,2013-07-10 21:37:00,
2013-07-10 17:42:00,84.6,74.9,30.01,SSE,157,0.0,0.0,73,0.00,,,0.00,WeatherCatV1.15B25,2013-07-10 21:42:00,
2013-07-10 17:47:00,84.6,74.6,30.01,South,180,0.0,0.0,72,0.00,,,0.00,WeatherCatV1.15B25,2013-07-10 21:47:00,
2013-07-10 17:52:00,84.4,74.8,30.01,SSE,157,2.0,2.0,73,0.00,,,0.00,WeatherCatV1.15B25,2013-07-10 21:52:00,
2013-07-10 17:57:00,84.0,74.4,30.01,SE,135,0.0,0.0,73,0.00,,,0.00,WeatherCatV1.15B25,2013-07-10 21:57:00,
2013-07-10 18:02:00,83.8,74.2,30.01,SSE,157,0.0,0.0,73,0.00,,,0.00,WeatherCatV1.15B25,2013-07-10 22:02:00,
2013-07-10 18:07:00,83.7,74.5,30.00,SSE,157,0.0,0.0,74,0.00,,,0.00,WeatherCatV1.15B25,2013-07-10 22:07:00,
2013-07-10 18:12:00,83.5,74.3,30.00,SE,135,0.0,0.0,74,0.00,,,0.00,WeatherCatV1.15B25,2013-07-10 22:12:00,
2013-07-10 18:17:00,83.5,74.7,30.00,SSE,157,2.0,2.0,75,0.00,,,0.00,WeatherCatV1.15B25,2013-07-10 22:17:00,
2013-07-10 18:22:00,83.5,74.7,30.00,SE,135,0.0,0.0,75,0.00,,,0.00,WeatherCatV1.15B25,2013-07-10 22:22:00,
2013-07-10 18:27:00,83.5,74.7,29.99,SE,135,0.0,1.3,75,0.00,,,0.00,WeatherCatV1.15B25,2013-07-10 22:27:00,
2013-07-10 18:32:00,83.3,74.9,29.99,SE,135,0.0,0.0,76,0.00,,,0.00,WeatherCatV1.15B25,2013-07-10 22:32:00,
2013-07-10 18:37:00,83.3,74.9,29.99,SSE,157,0.0,0.0,76,0.00,,,0.00,WeatherCatV1.15B25,2013-07-10 22:37:00,
2013-07-10 18:42:00,83.1,74.4,29.98,South,180,0.7,0.7,75,0.00,,,0.00,WeatherCatV1.15B25,2013-07-10 22:42:00,
2013-07-10 18:47:00,82.9,74.6,29.99,SSE,157,0.0,0.0,76,0.00,,,0.00,WeatherCatV1.15B25,2013-07-10 22:47:00,
2013-07-10 18:52:00,82.9,74.6,29.98,SSE,157,0.0,0.0,76,0.00,,,0.00,WeatherCatV1.15B25,2013-07-10 22:52:00,
2013-07-10 18:57:00,82.8,74.4,29.99,SSE,157,0.0,0.0,76,0.00,,,0.00,WeatherCatV1.15B25,2013-07-10 22:57:00,
2013-07-10 19:02:00,82.8,74.4,29.98,SE,135,0.0,0.0,76,0.00,,,0.00,WeatherCatV1.15B25,2013-07-10 23:02:00,
2013-07-10 19:07:00,82.6,74.7,29.98,South,180,0.0,0.0,77,0.00,,,0.00,WeatherCatV1.15B25,2013-07-10 23:07:00,
2013-07-10 19:12:00,82.4,74.5,29.99,SSE,157,1.6,1.6,77,0.00,,,0.00,WeatherCatV1.15B25,2013-07-10 23:12:00,
2013-07-10 19:17:00,82.2,74.3,29.98,South,180,0.0,0.0,77,0.00,,,0.00,WeatherCatV1.15B25,2013-07-10 23:17:00,
2013-07-10 19:22:00,82.0,74.1,29.98,SSE,157,0.0,0.0,77,0.00,,,0.00,WeatherCatV1.15B25,2013-07-10 23:22:00,
2013-07-10 19:27:00,81.7,74.2,29.98,SSE,157,0.0,0.0,78,0.00,,,0.00,WeatherCatV1.15B25,2013-07-10 23:27:00,
2013-07-10 19:32:00,81.7,74.2,29.98,South,180,0.0,0.0,78,0.00,,,0.00,WeatherCatV1.15B25,2013-07-10 23:32:00,
2013-07-10 19:37:00,81.3,73.8,29.98,SSE,157,0.0,0.0,78,0.00,,,0.00,WeatherCatV1.15B25,2013-07-10 23:37:00,
2013-07-10 19:42:00,81.1,73.7,29.98,South,180,0.0,1.1,78,0.00,,,0.00,WeatherCatV1.15B25,2013-07-10 23:42:00,
2013-07-10 19:47:00,81.0,73.5,29.98,South,180,0.0,0.0,78,0.00,,,0.00,WeatherCatV1.15B25,2013-07-10 23:47:00,
2013-07-10 19:52:00,80.8,73.3,29.98,South,180,0.0,0.0,78,0.00,,,0.00,WeatherCatV1.15B25,2013-07-10 23:52:00,
2013-07-10 19:57:00,80.4,73.4,29.98,SSE,157,0.0,0.0,79,0.00,,,0.00,WeatherCatV1.15B25,2013-07-10 23:57:00,
2013-07-10 20:02:00,80.4,73.4,29.98,South,180,0.0,0.0,79,0.00,,,0.00,WeatherCatV1.15B25,2013-07-11 00:02:00,
2013-07-10 20:07:00,80.2,73.2,29.98,South,180,0.0,0.0,79,0.00,,,0.00,WeatherCatV1.15B25,2013-07-11 00:07:00,
2013-07-10 20:12:00,80.2,73.2,29.98,South,180,0.0,0.0,79,0.00,,,0.00,WeatherCatV1.15B25,2013-07-11 00:12:00,
2013-07-10 20:17:00,79.9,72.8,29.98,South,180,0.0,0.0,79,0.00,,,0.00,WeatherCatV1.15B25,2013-07-11 00:17:00,
2013-07-10 20:22:00,79.9,72.8,29.98,SSE,157,0.0,0.0,79,0.00,,,0.00,WeatherCatV1.15B25,2013-07-11 00:22:00,
2013-07-10 20:27:00,79.7,73.0,29.99,South,180,0.0,0.0,80,0.00,,,0.00,WeatherCatV1.15B25,2013-07-11 00:27:00,
2013-07-10 20:32:00,79.5,72.9,29.99,South,180,0.0,0.0,80,0.00,,,0.00,WeatherCatV1.15B25,2013-07-11 00:32:00,
2013-07-10 20:37:00,79.5,73.2,29.99,South,180,0.0,0.0,81,0.00,,,0.00,WeatherCatV1.15B25,2013-07-11 00:37:00,
2013-07-10 20:42:00,79.3,73.0,29.99,SSE,157,0.0,0.0,81,0.00,,,0.00,WeatherCatV1.15B25,2013-07-11 00:42:00,
2013-07-10 20:47:00,79.3,73.0,29.99,SSE,157,0.0,0.0,81,0.00,,,0.00,WeatherCatV1.15B25,2013-07-11 00:47:00,
2013-07-10 20:52:00,79.3,73.4,29.99,South,180,0.0,0.0,82,0.00,,,0.00,WeatherCatV1.15B25,2013-07-11 00:52:00,
2013-07-10 20:57:00,79.2,73.2,29.99,SSE,157,0.0,1.1,82,0.00,,,0.00,WeatherCatV1.15B25,2013-07-11 00:57:00,
2013-07-10 21:02:00,79.0,73.0,30.00,SSE,157,0.0,0.0,82,0.00,,,0.00,WeatherCatV1.15B25,2013-07-11 01:02:00,
2013-07-10 21:07:00,79.0,73.0,29.99,SSE,157,0.0,0.0,82,0.00,,,0.00,WeatherCatV1.15B25,2013-07-11 01:07:00,
2013-07-10 21:12:00,79.0,73.0,30.00,SSE,157,0.0,0.0,82,0.00,,,0.00,WeatherCatV1.15B25,2013-07-11 01:12:00,
2013-07-10 21:17:00,79.0,73.0,29.99,South,180,0.0,0.0,82,0.00,,,0.00,WeatherCatV1.15B25,2013-07-11 01:17:00,
2013-07-10 21:22:00,79.0,73.0,29.99,South,180,0.0,0.0,82,0.00,,,0.00,WeatherCatV1.15B25,2013-07-11 01:22:00,
2013-07-10 21:27:00,78.8,73.2,30.00,SSE,157,0.0,0.0,83,0.00,,,0.00,WeatherCatV1.15B25,2013-07-11 01:27:00,
2013-07-10 21:32:00,78.8,73.2,30.00,SSE,157,0.0,0.0,83,0.00,,,0.00,WeatherCatV1.15B25,2013-07-11 01:32:00,
2013-07-10 21:37:00,78.6,73.0,30.00,SSE,157,0.0,0.0,83,0.00,,,0.00,WeatherCatV1.15B25,2013-07-11 01:37:00,
2013-07-10 21:42:00,78.6,73.4,30.00,SSE,157,0.0,0.0,84,0.00,,,0.00,WeatherCatV1.15B25,2013-07-11 01:42:00,
2013-07-10 21:47:00,78.6,73.4,30.01,SSE,157,0.0,0.0,84,0.00,,,0.00,WeatherCatV1.15B25,2013-07-11 01:47:00,
2013-07-10 21:52:00,78.6,73.4,30.00,SSE,157,0.0,0.0,84,0.00,,,0.00,WeatherCatV1.15B25,2013-07-11 01:52:00,
2013-07-10 21:57:00,78.6,73.4,30.00,SSE,157,0.0,0.0,84,0.00,,,0.00,WeatherCatV1.15B25,2013-07-11 01:57:00,
2013-07-10 22:02:00,78.6,73.4,30.01,South,180,0.0,0.0,84,0.00,,,0.00,WeatherCatV1.15B25,2013-07-11 02:02:00,
2013-07-10 22:07:00,78.6,73.4,30.00,South,180,0.0,0.0,84,0.00,,,0.00,WeatherCatV1.15B25,2013-07-11 02:07:00,
2013-07-10 22:12:00,78.6,73.4,30.01,SE,135,0.0,0.0,84,0.00,,,0.00,WeatherCatV1.15B25,2013-07-11 02:12:00,
2013-07-10 22:17:00,78.6,73.4,30.01,South,180,0.0,0.0,84,0.00,,,0.00,WeatherCatV1.15B25,2013-07-11 02:17:00,
2013-07-10 22:22:00,78.6,73.8,30.01,SSE,157,0.0,0.0,85,0.00,,,0.00,WeatherCatV1.15B25,2013-07-11 02:22:00,
2013-07-10 22:27:00,78.4,73.6,30.02,South,180,0.0,0.0,85,0.00,,,0.00,WeatherCatV1.15B25,2013-07-11 02:27:00,
2013-07-10 22:32:00,78.4,73.6,30.02,WSW,247,0.0,0.0,85,0.00,,,0.00,WeatherCatV1.15B25,2013-07-11 02:32:00,
2013-07-10 22:37:00,78.4,73.6,30.03,SSW,202,0.0,0.0,85,0.00,,,0.00,WeatherCatV1.15B25,2013-07-11 02:37:00,
2013-07-10 22:42:00,78.6,73.8,30.03,South,180,0.0,0.0,85,0.00,,,0.00,WeatherCatV1.15B25,2013-07-11 02:42:00,
2013-07-10 22:47:00,78.6,73.8,30.03,South,180,0.0,0.0,85,0.00,,,0.00,WeatherCatV1.15B25,2013-07-11 02:47:00,
2013-07-10 22:52:00,78.6,73.6,30.03,South,180,0.0,0.0,85,0.00,,,0.00,WeatherCatV1.15B25,2013-07-11 02:52:00,
2013-07-10 22:57:00,78.6,73.8,30.03,SSW,202,0.0,0.0,85,0.00,,,0.00,WeatherCatV1.15B25,2013-07-11 02:57:00,
2013-07-10 23:02:00,78.4,73.6,30.03,SSW,202,0.0,0.0,85,0.00,,,0.00,WeatherCatV1.15B25,2013-07-11 03:02:00,
2013-07-10 23:07:00,78.4,73.6,30.03,South,180,0.0,0.0,85,0.00,,,0.00,WeatherCatV1.15B25,2013-07-11 03:07:00,
2013-07-10 23:12:00,78.4,73.6,30.03,South,180,0.0,0.0,85,0.00,,,0.00,WeatherCatV1.15B25,2013-07-11 03:12:00,
2013-07-10 23:17:00,78.4,73.6,30.03,SSE,157,0.0,0.0,85,0.00,,,0.00,WeatherCatV1.15B25,2013-07-11 03:17:00,
2013-07-10 23:22:00,78.4,73.6,30.04,South,180,0.0,0.0,85,0.00,,,0.00,WeatherCatV1.15B25,2013-07-11 03:22:00,
2013-07-10 23:27:00,78.3,73.4,30.04,South,180,0.0,0.0,85,0.00,,,0.00,WeatherCatV1.15B25,2013-07-11 03:27:00,
2013-07-10 23:32:00,78.1,73.2,30.03,SSE,157,0.0,0.0,85,0.00,,,0.00,WeatherCatV1.15B25,2013-07-11 03:32:00,
2013-07-10 23:37:00,78.1,73.2,30.03,South,180,0.0,0.0,85,0.00,,,0.00,WeatherCatV1.15B25,2013-07-11 03:37:00,
2013-07-10 23:42:00,78.1,73.2,30.03,South,180,0.0,0.0,85,0.00,,,0.00,WeatherCatV1.15B25,2013-07-11 03:42:00,
2013-07-10 23:47:00,78.1,73.2,30.03,South,180,0.0,0.0,85,0.00,,,0.00,WeatherCatV1.15B25,2013-07-11 03:47:00,
2013-07-10 23:52:00,78.1,73.6,30.03,SSE,157,0.0,0.0,86,0.00,,,0.00,WeatherCatV1.15B25,2013-07-11 03:52:00,
2013-07-10 23:57:00,78.1,73.6,30.02,SSE,157,0.0,0.0,86,0.00,,,0.00,WeatherCatV1.15B25,2013-07-11 03:57:00,